地図

経路データ

SID SEASON NUMBER BASIN SUBBASIN NAME ISO_TIME NATURE LAT LON WMO_WIND WMO_PRES WMO_AGENCY TRACK_TYPE DIST2LAND LANDFALL IFLAG USA_AGENCY USA_ATCF_ID USA_LAT USA_LON USA_RECORD USA_STATUS USA_WIND USA_PRES USA_SSHS USA_R34_NE USA_R34_SE USA_R34_SW USA_R34_NW USA_R50_NE USA_R50_SE USA_R50_SW USA_R50_NW USA_R64_NE USA_R64_SE USA_R64_SW USA_R64_NW USA_POCI USA_ROCI USA_RMW USA_EYE TOKYO_LAT TOKYO_LON TOKYO_GRADE TOKYO_WIND TOKYO_PRES TOKYO_R50_DIR TOKYO_R50_LONG TOKYO_R50_SHORT TOKYO_R30_DIR TOKYO_R30_LONG TOKYO_R30_SHORT TOKYO_LAND CMA_LAT CMA_LON CMA_CAT CMA_WIND CMA_PRES HKO_LAT HKO_LON HKO_CAT HKO_WIND HKO_PRES NEWDELHI_LAT NEWDELHI_LON NEWDELHI_GRADE NEWDELHI_WIND NEWDELHI_PRES NEWDELHI_CI NEWDELHI_DP NEWDELHI_POCI REUNION_LAT REUNION_LON REUNION_TYPE REUNION_WIND REUNION_PRES REUNION_TNUM REUNION_CI REUNION_RMW REUNION_R34_NE REUNION_R34_SE REUNION_R34_SW REUNION_R34_NW REUNION_R50_NE REUNION_R50_SE REUNION_R50_SW REUNION_R50_NW REUNION_R64_NE REUNION_R64_SE REUNION_R64_SW REUNION_R64_NW BOM_LAT BOM_LON BOM_TYPE BOM_WIND BOM_PRES BOM_TNUM BOM_CI BOM_RMW BOM_R34_NE BOM_R34_SE BOM_R34_SW BOM_R34_NW BOM_R50_NE BOM_R50_SE BOM_R50_SW BOM_R50_NW BOM_R64_NE BOM_R64_SE BOM_R64_SW BOM_R64_NW BOM_ROCI BOM_POCI BOM_EYE BOM_POS_METHOD BOM_PRES_METHOD NADI_LAT NADI_LON NADI_CAT NADI_WIND NADI_PRES WELLINGTON_LAT WELLINGTON_LON WELLINGTON_WIND WELLINGTON_PRES DS824_LAT DS824_LON DS824_STAGE DS824_WIND DS824_PRES TD9636_LAT TD9636_LON TD9636_STAGE TD9636_WIND TD9636_PRES TD9635_LAT TD9635_LON TD9635_WIND TD9635_PRES TD9635_ROCI NEUMANN_LAT NEUMANN_LON NEUMANN_CLASS NEUMANN_WIND NEUMANN_PRES MLC_LAT MLC_LON MLC_CLASS MLC_WIND MLC_PRES USA_GUST BOM_GUST BOM_GUST_PER REUNION_GUST REUNION_GUST_PER USA_SEAHGT USA_SEARAD_NE USA_SEARAD_SE USA_SEARAD_SW USA_SEARAD_NW STORM_SPEED STORM_DIR
1990247N07337 1990 81 NA NA ISIDORE 1990-09-04 00:00:00 TS 7.20000 -23.4000 25 1010 hurdat_atl main 928 928 O_____________ hurdat_atl AL101990 7.20000 -23.4000 TD 25 1010 -1 17 271
1990247N07337 1990 81 NA NA ISIDORE 1990-09-04 03:00:00 TS 7.21537 -24.2628 main 1007 1007 P_____________ AL101990 7.21537 -24.2628 TD 25 1010 -1 17 277
1990247N07337 1990 81 NA NA ISIDORE 1990-09-04 06:00:00 TS 7.40000 -25.1000 25 1010 hurdat_atl main 1068 1068 O_____________ hurdat_atl AL101990 7.40000 -25.1000 TD 25 1010 -1 17 291
1990247N07337 1990 81 NA NA ISIDORE 1990-09-04 09:00:00 TS 7.85477 -25.8998 main 1116 1116 P_____________ AL101990 7.85477 -25.8998 TD 25 1009 -1 19 302
1990247N07337 1990 81 NA NA ISIDORE 1990-09-04 12:00:00 TS 8.40000 -26.7000 25 1009 hurdat_atl main 1172 1172 O_____________ hurdat_atl AL101990 8.40000 -26.7000 TD 25 1009 -1 19 301
1990247N07337 1990 81 NA NA ISIDORE 1990-09-04 15:00:00 TS 8.83745 -27.5575 main 1247 1244 P_____________ AL101990 8.83745 -27.5575 TD 27 1009 -1 19 295
1990247N07337 1990 81 NA NA ISIDORE 1990-09-04 18:00:00 TS 9.20000 -28.4000 30 1009 hurdat_atl main 1317 1317 O_____________ hurdat_atl AL101990 9.20000 -28.4000 TD 30 1009 -1 17 292
1990247N07337 1990 81 NA NA ISIDORE 1990-09-04 21:00:00 TS 9.49473 -29.1651 main 1392 1392 P_____________ AL101990 9.49473 -29.1651 TD 30 1009 -1 16 289
1990247N07337 1990 81 NA NA ISIDORE 1990-09-05 00:00:00 TS 9.70000 -29.9000 30 1009 hurdat_atl main 1459 1459 O_____________ hurdat_atl AL101990 9.70000 -29.9000 TD 30 1009 -1 15 283
1990247N07337 1990 81 NA NA ISIDORE 1990-09-05 03:00:00 TS 9.82993 -30.6651 main 1536 1536 P_____________ AL101990 9.82993 -30.6651 TD 30 1008 -1 15 278
1990247N07337 1990 81 NA NA ISIDORE 1990-09-05 06:00:00 TS 9.90000 -31.4000 30 1008 hurdat_atl main 1603 1603 O_____________ hurdat_atl AL101990 9.90000 -31.4000 TD 30 1008 -1 14 274
1990247N07337 1990 81 NA NA ISIDORE 1990-09-05 09:00:00 TS 9.93486 -32.0802 main 1665 1645 P_____________ AL101990 9.93486 -32.0802 TD 32 1007 -1 13 274
1990247N07337 1990 81 NA NA ISIDORE 1990-09-05 12:00:00 TS 10.0000 -32.7000 35 1007 hurdat_atl main 1645 1630 O_____________ hurdat_atl AL101990 10.0000 -32.7000 TS 35 1007 0 12 280
1990247N07337 1990 81 NA NA ISIDORE 1990-09-05 15:00:00 TS 10.1399 -33.2801 main 1625 1625 P_____________ AL101990 10.1399 -33.2801 TS 37 1006 0 12 290
1990247N07337 1990 81 NA NA ISIDORE 1990-09-05 18:00:00 TS 10.4000 -33.8000 40 1005 hurdat_atl main 1631 1627 O_____________ hurdat_atl AL101990 10.4000 -33.8000 TS 40 1005 0 12 304
1990247N07337 1990 81 NA NA ISIDORE 1990-09-05 21:00:00 TS 10.7974 -34.2800 main 1651 1651 P_____________ AL101990 10.7974 -34.2800 TS 42 1004 0 13 316
1990247N07337 1990 81 NA NA ISIDORE 1990-09-06 00:00:00 TS 11.3000 -34.7000 45 1004 hurdat_atl main 1688 1688 O_____________ hurdat_atl AL101990 11.3000 -34.7000 TS 45 1004 0 13 323
1990247N07337 1990 81 NA NA ISIDORE 1990-09-06 03:00:00 TS 11.8349 -35.0726 main 1727 1727 P_____________ AL101990 11.8349 -35.0726 TS 47 1003 0 13 328
1990247N07337 1990 81 NA NA ISIDORE 1990-09-06 06:00:00 TS 12.4000 -35.4000 50 1003 hurdat_atl main 1781 1781 O_____________ hurdat_atl AL101990 12.4000 -35.4000 TS 50 1003 0 13 330
1990247N07337 1990 81 NA NA ISIDORE 1990-09-06 09:00:00 TS 12.9425 -35.7226 main 1827 1827 P_____________ AL101990 12.9425 -35.7226 TS 52 1001 0 13 332
1990247N07337 1990 81 NA NA ISIDORE 1990-09-06 12:00:00 TS 13.5000 -36.0000 55 1000 hurdat_atl main 1884 1884 O_____________ hurdat_atl AL101990 13.5000 -36.0000 TS 55 1000 0 13 337
1990247N07337 1990 81 NA NA ISIDORE 1990-09-06 15:00:00 TS 14.0924 -36.2152 main 1945 1945 P_____________ AL101990 14.0924 -36.2152 TS 57 998 0 13 342
1990247N07337 1990 81 NA NA ISIDORE 1990-09-06 18:00:00 TS 14.7000 -36.4000 60 997 hurdat_atl main 2005 2005 O_____________ hurdat_atl AL101990 14.7000 -36.4000 TS 60 997 0 13 343
1990247N07337 1990 81 NA NA ISIDORE 1990-09-06 21:00:00 TS 15.2925 -36.5927 main 2026 2026 P_____________ AL101990 15.2925 -36.5927 TS 62 995 0 13 342
1990247N07337 1990 81 NA NA ISIDORE 1990-09-07 00:00:00 TS 15.9000 -36.8000 65 994 hurdat_atl main 2049 2048 O_____________ hurdat_atl AL101990 15.9000 -36.8000 HU 65 994 1 13 340
1990247N07337 1990 81 NA NA ISIDORE 1990-09-07 03:00:00 TS 16.5425 -37.0574 main 2066 2066 P_____________ AL101990 16.5425 -37.0574 HU 70 988 1 14 340
1990247N07337 1990 81 NA NA ISIDORE 1990-09-07 06:00:00 TS 17.2000 -37.3000 75 983 hurdat_atl main 2101 2101 O_____________ hurdat_atl AL101990 17.2000 -37.3000 HU 75 983 1 14 343
1990247N07337 1990 81 NA NA ISIDORE 1990-09-07 09:00:00 TS 17.8424 -37.4653 main 2131 2131 P_____________ AL101990 17.8424 -37.4653 HU 80 980 1 13 348
1990247N07337 1990 81 NA NA ISIDORE 1990-09-07 12:00:00 TS 18.5000 -37.6000 85 978 hurdat_atl main 2160 2156 O_____________ hurdat_atl AL101990 18.5000 -37.6000 HU 85 978 2 14 349
1990247N07337 1990 81 NA NA ISIDORE 1990-09-07 15:00:00 TS 19.2075 -37.7501 main 2168 2162 P_____________ AL101990 19.2075 -37.7501 HU 82 978 1 14 349
1990247N07337 1990 81 NA NA ISIDORE 1990-09-07 18:00:00 TS 19.9000 -37.9000 80 979 hurdat_atl main 2169 2166 O_____________ hurdat_atl AL101990 19.9000 -37.9000 HU 80 979 1 14 348
1990247N07337 1990 81 NA NA ISIDORE 1990-09-07 21:00:00 TS 20.5224 -38.0353 main 2173 2172 P_____________ AL101990 20.5224 -38.0353 HU 77 979 1 12 347
1990247N07337 1990 81 NA NA ISIDORE 1990-09-08 00:00:00 TS 21.1000 -38.2000 75 979 hurdat_atl main 2189 2188 O_____________ hurdat_atl AL101990 21.1000 -38.2000 HU 75 979 1 12 342
1990247N07337 1990 81 NA NA ISIDORE 1990-09-08 03:00:00 TS 21.6650 -38.4276 main 2207 2207 P_____________ AL101990 21.6650 -38.4276 HU 72 982 1 12 337
1990247N07337 1990 81 NA NA ISIDORE 1990-09-08 06:00:00 TS 22.2000 -38.7000 70 985 hurdat_atl main 2235 2234 O_____________ hurdat_atl AL101990 22.2000 -38.7000 HU 70 985 1 12 334
1990247N07337 1990 81 NA NA ISIDORE 1990-09-08 09:00:00 TS 22.6999 -38.9853 main 2263 2263 P_____________ AL101990 22.6999 -38.9853 HU 67 989 1 11 331
1990247N07337 1990 81 NA NA ISIDORE 1990-09-08 12:00:00 TS 23.2000 -39.3000 65 994 hurdat_atl main 2293 2293 O_____________ hurdat_atl AL101990 23.2000 -39.3000 HU 65 994 1 12 330
1990247N07337 1990 81 NA NA ISIDORE 1990-09-08 15:00:00 TS 23.7275 -39.6428 main 2323 2323 P_____________ AL101990 23.7275 -39.6428 HU 62 995 0 13 330
1990247N07337 1990 81 NA NA ISIDORE 1990-09-08 18:00:00 TS 24.3000 -40.0000 60 996 hurdat_atl main 2348 2345 O_____________ hurdat_atl AL101990 24.3000 -40.0000 TS 60 996 0 14 333
1990247N07337 1990 81 NA NA ISIDORE 1990-09-08 21:00:00 TS 24.9422 -40.3280 main 2360 2357 P_____________ AL101990 24.9422 -40.3280 TS 57 997 0 15 334
1990247N07337 1990 81 NA NA ISIDORE 1990-09-09 00:00:00 TS 25.6000 -40.7000 55 999 hurdat_atl main 2381 2379 O_____________ hurdat_atl AL101990 25.6000 -40.7000 TS 55 999 0 15 330
1990247N07337 1990 81 NA NA ISIDORE 1990-09-09 03:00:00 TS 26.2148 -41.1555 main 2416 2414 P_____________ AL101990 26.2148 -41.1555 TS 52 999 0 15 323
1990247N07337 1990 81 NA NA ISIDORE 1990-09-09 06:00:00 TS 26.8000 -41.7000 50 1000 hurdat_atl main 2425 2341 O_____________ hurdat_atl AL101990 26.8000 -41.7000 TS 50 1000 0 16 318
1990247N07337 1990 81 NA NA ISIDORE 1990-09-09 09:00:00 TS 27.3876 -42.3348 main 2341 2264 P_____________ AL101990 27.3876 -42.3348 TS 52 997 0 16 314
1990247N07337 1990 81 NA NA ISIDORE 1990-09-09 12:00:00 TS 27.9000 -43.0000 55 995 hurdat_atl main 2264 2202 O_____________ hurdat_atl AL101990 27.9000 -43.0000 TS 55 995 0 15 309
1990247N07337 1990 81 NA NA ISIDORE 1990-09-09 15:00:00 TS 28.3024 -43.6304 main 2202 2151 P_____________ AL101990 28.3024 -43.6304 TS 60 992 0 13 304
1990247N07337 1990 81 NA NA ISIDORE 1990-09-09 18:00:00 TS 28.6000 -44.2000 65 990 hurdat_atl main 2151 2114 O_____________ hurdat_atl AL101990 28.6000 -44.2000 HU 65 990 1 11 299
1990247N07337 1990 81 NA NA ISIDORE 1990-09-09 21:00:00 TS 28.8223 -44.7030 main 2114 2081 P_____________ AL101990 28.8223 -44.7030 HU 65 988 1 9 297
1990247N07337 1990 81 NA NA ISIDORE 1990-09-10 00:00:00 TS 29.0000 -45.1000 65 987 hurdat_atl main 2081 2051 O_____________ hurdat_atl AL101990 29.0000 -45.1000 HU 65 987 1 7 303
1990247N07337 1990 81 NA NA ISIDORE 1990-09-10 03:00:00 TS 29.1997 -45.3803 main 2051 2024 P_____________ AL101990 29.1997 -45.3803 HU 65 987 1 6 312
1990247N07337 1990 81 NA NA ISIDORE 1990-09-10 06:00:00 TS 29.4000 -45.6000 65 987 hurdat_atl main 2024 1997 O_____________ hurdat_atl AL101990 29.4000 -45.6000 HU 65 987 1 6 315
1990247N07337 1990 81 NA NA ISIDORE 1990-09-10 09:00:00 TS 29.6075 -45.8500 main 1995 1968 P_____________ AL101990 29.6075 -45.8500 HU 65 987 1 6 313
1990247N07337 1990 81 NA NA ISIDORE 1990-09-10 12:00:00 TS 29.8000 -46.1000 65 987 hurdat_atl main 1968 1952 O_____________ hurdat_atl AL101990 29.8000 -46.1000 HU 65 987 1 6 307
1990247N07337 1990 81 NA NA ISIDORE 1990-09-10 15:00:00 TS 29.9425 -46.3577 main 1949 1922 P_____________ AL101990 29.9425 -46.3577 HU 65 987 1 5 305
1990247N07337 1990 81 NA NA ISIDORE 1990-09-10 18:00:00 TS 30.1000 -46.6000 65 987 hurdat_atl main 1922 1896 O_____________ hurdat_atl AL101990 30.1000 -46.6000 HU 65 987 1 5 315
1990247N07337 1990 81 NA NA ISIDORE 1990-09-10 21:00:00 TS 30.3274 -46.8076 main 1896 1859 P_____________ AL101990 30.3274 -46.8076 HU 65 987 1 6 325
1990247N07337 1990 81 NA NA ISIDORE 1990-09-11 00:00:00 TS 30.6000 -47.0000 65 987 hurdat_atl main 1859 1821 O_____________ hurdat_atl AL101990 30.6000 -47.0000 HU 65 987 1 6 330
1990247N07337 1990 81 NA NA ISIDORE 1990-09-11 03:00:00 TS 30.8849 -47.1853 main 1821 1784 P_____________ AL101990 30.8849 -47.1853 HU 70 985 1 7 330
1990247N07337 1990 81 NA NA ISIDORE 1990-09-11 06:00:00 TS 31.2000 -47.4000 75 984 hurdat_atl main 1784 1745 O_____________ hurdat_atl AL101990 31.2000 -47.4000 HU 75 984 1 8 327
1990247N07337 1990 81 NA NA ISIDORE 1990-09-11 09:00:00 TS 31.5425 -47.6776 main 1745 1695 P_____________ AL101990 31.5425 -47.6776 HU 77 982 1 9 324
1990247N07337 1990 81 NA NA ISIDORE 1990-09-11 12:00:00 TS 31.9000 -48.0000 80 980 hurdat_atl main 1695 1656 O_____________ hurdat_atl AL101990 31.9000 -48.0000 HU 80 980 1 9 322
1990247N07337 1990 81 NA NA ISIDORE 1990-09-11 15:00:00 TS 32.2649 -48.3351 main 1645 1604 P_____________ AL101990 32.2649 -48.3351 HU 80 979 1 9 320
1990247N07337 1990 81 NA NA ISIDORE 1990-09-11 18:00:00 TS 32.6000 -48.7000 80 979 hurdat_atl main 1604 1563 O_____________ hurdat_atl AL101990 32.6000 -48.7000 HU 80 979 1 9 313
1990247N07337 1990 81 NA NA ISIDORE 1990-09-11 21:00:00 TS 32.8801 -49.1075 main 1563 1534 P_____________ AL101990 32.8801 -49.1075 HU 77 979 1 8 307
1990247N07337 1990 81 NA NA ISIDORE 1990-09-12 00:00:00 TS 33.1000 -49.5000 75 979 hurdat_atl main 1534 1507 O_____________ hurdat_atl AL101990 33.1000 -49.5000 HU 75 979 1 7 303
1990247N07337 1990 81 NA NA ISIDORE 1990-09-12 03:00:00 TS 33.2724 -49.8377 main 1507 1492 P_____________ AL101990 33.2724 -49.8377 HU 75 979 1 6 301
1990247N07337 1990 81 NA NA ISIDORE 1990-09-12 06:00:00 TS 33.4000 -50.1000 75 980 hurdat_atl main 1492 1478 O_____________ hurdat_atl AL101990 33.4000 -50.1000 HU 75 980 1 4 303
1990247N07337 1990 81 NA NA ISIDORE 1990-09-12 09:00:00 TS 33.5074 -50.2802 main 1478 1465 P_____________ AL101990 33.5074 -50.2802 HU 72 983 1 3 308
1990247N07337 1990 81 NA NA ISIDORE 1990-09-12 12:00:00 TS 33.6000 -50.4000 70 986 hurdat_atl main 1465 1453 O_____________ hurdat_atl AL101990 33.6000 -50.4000 HU 70 986 1 3 314
1990247N07337 1990 81 NA NA ISIDORE 1990-09-12 15:00:00 TS 33.6925 -50.5150 main 1453 1441 P_____________ AL101990 33.6925 -50.5150 HU 67 986 1 3 320
1990247N07337 1990 81 NA NA ISIDORE 1990-09-12 18:00:00 TS 33.8000 -50.6000 65 987 hurdat_atl main 1441 1428 O_____________ hurdat_atl AL101990 33.8000 -50.6000 HU 65 987 1 3 335
1990247N07337 1990 81 NA NA ISIDORE 1990-09-12 21:00:00 TS 33.9425 -50.6575 main 1428 1406 P_____________ AL101990 33.9425 -50.6575 HU 65 987 1 3 346
1990247N07337 1990 81 NA NA ISIDORE 1990-09-13 00:00:00 TS 34.1000 -50.7000 65 987 hurdat_atl main 1406 1394 O_____________ hurdat_atl AL101990 34.1000 -50.7000 HU 65 987 1 3 344
1990247N07337 1990 81 NA NA ISIDORE 1990-09-13 03:00:00 TS 34.2350 -50.7575 main 1394 1372 P_____________ AL101990 34.2350 -50.7575 HU 65 987 1 3 346
1990247N07337 1990 81 NA NA ISIDORE 1990-09-13 06:00:00 TS 34.4000 -50.8000 65 987 hurdat_atl main 1372 1350 O_____________ hurdat_atl AL101990 34.4000 -50.8000 HU 65 987 1 4 352
1990247N07337 1990 81 NA NA ISIDORE 1990-09-13 09:00:00 TS 34.6350 -50.8224 main 1350 1317 P_____________ AL101990 34.6350 -50.8224 HU 65 987 1 5 2
1990247N07337 1990 81 NA NA ISIDORE 1990-09-13 12:00:00 TS 34.9000 -50.8000 65 987 hurdat_atl main 1317 1295 O_____________ hurdat_atl AL101990 34.9000 -50.8000 HU 65 987 1 5 7
1990247N07337 1990 81 NA NA ISIDORE 1990-09-13 15:00:00 TS 35.1574 -50.7374 main 1285 1264 P_____________ AL101990 35.1574 -50.7374 HU 65 987 1 5 18
1990247N07337 1990 81 NA NA ISIDORE 1990-09-13 18:00:00 TS 35.4000 -50.6000 65 987 hurdat_atl main 1264 1244 O_____________ hurdat_atl AL101990 35.4000 -50.6000 HU 65 987 1 5 32
1990247N07337 1990 81 NA NA ISIDORE 1990-09-13 21:00:00 TS 35.6074 -50.3874 main 1245 1227 P_____________ AL101990 35.6074 -50.3874 HU 65 987 1 6 45
1990247N07337 1990 81 NA NA ISIDORE 1990-09-14 00:00:00 TS 35.8000 -50.1000 65 987 hurdat_atl main 1228 1212 O_____________ hurdat_atl AL101990 35.8000 -50.1000 HU 65 987 1 6 52
1990247N07337 1990 81 NA NA ISIDORE 1990-09-14 03:00:00 TS 36.0000 -49.7649 main 1212 1196 P_____________ AL101990 36.0000 -49.7649 HU 65 987 1 7 55
1990247N07337 1990 81 NA NA ISIDORE 1990-09-14 06:00:00 TS 36.2000 -49.4000 65 987 hurdat_atl main 1198 1184 O_____________ hurdat_atl AL101990 36.2000 -49.4000 HU 65 987 1 7 55
1990247N07337 1990 81 NA NA ISIDORE 1990-09-14 09:00:00 TS 36.3923 -49.0572 main 1184 1170 P_____________ AL101990 36.3923 -49.0572 HU 65 987 1 7 55
1990247N07337 1990 81 NA NA ISIDORE 1990-09-14 12:00:00 TS 36.6000 -48.7000 65 987 hurdat_atl main 1172 1159 O_____________ hurdat_atl AL101990 36.6000 -48.7000 HU 65 987 1 8 55
1990247N07337 1990 81 NA NA ISIDORE 1990-09-14 15:00:00 TS 36.8276 -48.2850 main 1162 1139 P_____________ AL101990 36.8276 -48.2850 HU 65 987 1 8 52
1990247N07337 1990 81 NA NA ISIDORE 1990-09-14 18:00:00 TS 37.1000 -47.9000 65 987 hurdat_atl main 1143 1121 O_____________ hurdat_atl AL101990 37.1000 -47.9000 HU 65 987 1 8 42
1990247N07337 1990 81 NA NA ISIDORE 1990-09-14 21:00:00 TS 37.4199 -47.6049 main 1121 1087 P_____________ AL101990 37.4199 -47.6049 HU 65 987 1 8 30
1990247N07337 1990 81 NA NA ISIDORE 1990-09-15 00:00:00 TS 37.8000 -47.4000 65 987 hurdat_atl main 1087 1050 O_____________ hurdat_atl AL101990 37.8000 -47.4000 HU 65 987 1 9 19
1990247N07337 1990 81 NA NA ISIDORE 1990-09-15 03:00:00 TS 38.2349 -47.2403 main 1054 1004 P_____________ AL101990 38.2349 -47.2403 HU 65 987 1 9 10
1990247N07337 1990 81 NA NA ISIDORE 1990-09-15 06:00:00 TS 38.7000 -47.2000 65 987 hurdat_atl main 1004 961 O_____________ hurdat_atl AL101990 38.7000 -47.2000 HU 65 987 1 9 357
1990247N07337 1990 81 NA NA ISIDORE 1990-09-15 09:00:00 TS 39.1650 -47.2971 main 951 904 P_____________ AL101990 39.1650 -47.2971 HU 65 987 1 9 346
1990247N07337 1990 81 NA NA ISIDORE 1990-09-15 12:00:00 TS 39.6000 -47.5000 65 987 hurdat_atl main 904 856 O_____________ hurdat_atl AL101990 39.6000 -47.5000 HU 65 987 1 9 338
1990247N07337 1990 81 NA NA ISIDORE 1990-09-15 15:00:00 TS 40.0025 -47.7347 main 856 815 P_____________ AL101990 40.0025 -47.7347 HU 65 987 1 8 331
1990247N07337 1990 81 NA NA ISIDORE 1990-09-15 18:00:00 TS 40.3000 -48.0000 65 987 hurdat_atl main 815 793 O_____________ hurdat_atl AL101990 40.3000 -48.0000 HU 65 987 1 6 308
1990247N07337 1990 81 NA NA ISIDORE 1990-09-15 21:00:00 TS 40.3551 -48.3321 main 793 775 P_____________ AL101990 40.3551 -48.3321 HU 65 987 1 4 298
1990247N07337 1990 81 NA NA ISIDORE 1990-09-16 00:00:00 TS 40.5000 -48.5000 65 987 hurdat_atl main 775 735 O_____________ hurdat_atl AL101990 40.5000 -48.5000 HU 65 987 1 7 2
1990247N07337 1990 81 NA NA ISIDORE 1990-09-16 03:00:00 TS 41.0375 -48.3051 main 735 679 P_____________ AL101990 41.0375 -48.3051 HU 62 988 0 14 19
1990247N07337 1990 81 NA NA ISIDORE 1990-09-16 06:00:00 TS 41.8000 -47.9000 60 990 hurdat_atl main 679 631 O_____________ hurdat_atl AL101990 41.8000 -47.9000 TS 60 990 0 17 20
1990247N07337 1990 81 NA NA ISIDORE 1990-09-16 09:00:00 TS 42.6344 -47.5162 main 631 594 P_____________ AL101990 42.6344 -47.5162 TS 57 992 0 18 21
1990247N07337 1990 81 NA NA ISIDORE 1990-09-16 12:00:00 TS 43.5000 -47.0000 55 995 hurdat_atl main 594 586 O_____________ hurdat_atl AL101990 43.5000 -47.0000 TS 55 995 0 18 28
1990247N07337 1990 81 NA NA ISIDORE 1990-09-16 15:00:00 TS 44.2645 -46.3304 main 588 588 P_____________ AL101990 44.2645 -46.3304 TS 50 996 0 18 36
1990247N07337 1990 81 NA NA ISIDORE 1990-09-16 18:00:00 TS 45.0000 -45.5000 45 997 hurdat_atl main 610 610 O_____________ hurdat_atl AL101990 45.0000 -45.5000 TS 45 997 0 19 41
1990247N07337 1990 81 NA NA ISIDORE 1990-09-16 21:00:00 TS 45.7351 -44.5354 main 647 643 P_____________ AL101990 45.7351 -44.5354 TS 45 998 0 20 43
1990247N07337 1990 81 NA NA ISIDORE 1990-09-17 00:00:00 TS 46.5000 -43.5000 45 1000 hurdat_atl main 695 695 O_____________ hurdat_atl AL101990 46.5000 -43.5000 TS 45 1000 0 21 41
1990247N07337 1990 81 NA NA ISIDORE 1990-09-17 03:00:00 TS 47.3267 -42.4972 main 756 756 P_____________ AL101990 47.3267 -42.4972 TS 40 1002 0 22 39
1990247N07337 1990 81 NA NA ISIDORE 1990-09-17 06:00:00 TS 48.2000 -41.5000 35 1005 hurdat_atl main 827 827 O_____________ hurdat_atl AL101990 48.2000 -41.5000 TS 35 1005 0 22 37
1990247N07337 1990 81 NA NA ISIDORE 1990-09-17 09:00:00 TS 49.0967 -40.5073 main 906 906 P_____________ AL101990 49.0967 -40.5073 TS 35 1005 0 22 36
1990247N07337 1990 81 NA NA ISIDORE 1990-09-17 12:00:00 ET 50.0000 -39.5000 35 1006 hurdat_atl main 986 O_____________ hurdat_atl AL101990 50.0000 -39.5000 EX 35 1006 -4 22 36

IBTrACS Databaseについて

本データベースは、米国NOAAが公開する1842年以降の世界の熱帯低気圧のベストトラックデータアーカイブInternational Best Track Archive for Climate Stewardship (IBTrACS)を、ウェブで閲覧しやすい形式に変換したものです。

最終更新日:2021-10-08